Time;durP1;ratioP1;P1;durP2;ratioP2;P2;SDS_P1;SDS_P2;PMS_P1;PMS_P2;Temp;Humidity;BMP_temperature;BMP_pressure;BME280_temperature;BME280_humidity;BME280_pressure;Samples;Min_cycle;Max_cycle;Signal;HPM_P1;HPM_P2
2022/10/26 00:01:08;;;;;;;;;;;;;;;19.76;51.27;95588.94;6116287;19;1911;-74
2022/10/26 00:03:11;;;;;;;;;;;;;;;19.75;51.47;95592.63;6116460;19;1457;-74
2022/10/26 00:05:18;;;;;;;;;;;;;;;19.76;51.12;95590.78;6124600;19;1964;-74
2022/10/26 00:07:21;;;;;;;;;;;;;;;19.76;51.38;95588.94;6123835;19;1991;-74
2022/10/26 00:09:24;;;;;;;;;;;;;;;19.76;51.14;95588.94;6126506;19;2737;-74
2022/10/26 00:11:28;;;;;;;;;;;;;;;19.76;50.95;95599.59;6120723;19;1492;-74
2022/10/26 00:13:31;;;;;;;;;;;;;;;19.77;51.04;95598.56;6105369;19;1874;-74
2022/10/26 00:15:34;;;;;;;;;;;;;;;19.76;51.35;95588.94;6125160;19;1804;-74
2022/10/26 00:17:37;;;;;;;;;;;;;;;19.76;51.09;95593.44;6125761;19;2016;-74
2022/10/26 00:19:41;;;;;;;;;;;;;;;19.75;50.97;95589.94;6123811;19;1742;-74
2022/10/26 00:21:47;;;;;;;;;;;;;;;19.77;51.24;95595.91;6124464;19;2008;-74
2022/10/26 00:23:50;;;;;;;;;;;;;;;19.77;50.89;95595.91;6114562;19;1999;-74
2022/10/26 00:25:57;;;;;;;;;;;;;;;19.77;50.93;95593.22;6114301;19;1996;-74
2022/10/26 00:28:00;;;;;;;;;;;;;;;19.77;50.84;95589.75;6122909;19;1640;-74
2022/10/26 00:30:03;;;;;;;;;;;;;;;19.77;50.99;95595.91;6124946;19;1846;-74
2022/10/26 00:32:07;;;;;;;;;;;;;;;19.77;50.82;95590.56;6125262;19;1804;-74
2022/10/26 00:34:11;;;;;;;;;;;;;;;19.78;51.05;95600.22;6123429;19;1909;-74
2022/10/26 00:36:15;;;;;;;;;;;;;;;19.76;51.01;95599.59;6107300;19;1555;-73
2022/10/26 00:38:22;;;;;;;;;;;;;;;19.77;50.87;95592.41;6123391;19;1772;-74
2022/10/26 00:40:29;;;;;;;;;;;;;;;19.77;51.01;95598.56;6123538;19;1815;-74
2022/10/26 00:42:32;;;;;;;;;;;;;;;19.78;51.16;95591.41;6124556;19;1830;-75
2022/10/26 00:45:00;;;;;;;;;;;;;;;19.76;50.99;95591.59;6123745;19;1808;-74
2022/10/26 00:47:04;;;;;;;;;;;;;;;19.78;51.20;95594.91;6107681;19;1656;-73
2022/10/26 00:49:14;;;;;;;;;;;;;;;19.77;51.06;95593.22;6121833;19;1823;-74
2022/10/26 00:51:20;;;;;;;;;;;;;;;19.77;51.36;95590.56;6120654;19;1710;-73
2022/10/26 00:53:26;;;;;;;;;;;;;;;19.77;51.06;95587.91;6120609;19;2177;-74
2022/10/26 00:55:31;;;;;;;;;;;;;;;19.77;51.14;95589.75;6125274;19;1813;-74
2022/10/26 00:57:34;;;;;;;;;;;;;;;19.77;51.05;95590.56;6122119;19;1677;-73
2022/10/26 00:59:38;;;;;;;;;;;;;;;19.78;51.34;95588.75;6109126;19;2096;-73
2022/10/26 01:01:43;;;;;;;;;;;;;;;19.77;51.24;95585.22;6124298;19;1725;-73
2022/10/26 01:03:47;;;;;;;;;;;;;;;19.78;50.82;95581.56;6121592;19;1571;-73
2022/10/26 01:05:51;;;;;;;;;;;;;;;19.78;51.21;95586.91;6122128;19;1755;-73
2022/10/26 01:07:55;;;;;;;;;;;;;;;19.77;50.80;95589.75;6120978;19;1714;-73
2022/10/26 01:10:02;;;;;;;;;;;;;;;19.79;51.13;95587.72;6104711;19;1600;-74
2022/10/26 01:12:06;;;;;;;;;;;;;;;19.78;51.08;95591.41;6122020;19;1604;-74
2022/10/26 01:14:11;;;;;;;;;;;;;;;19.78;51.07;95586.91;6123165;19;1974;-74
2022/10/26 01:16:22;;;;;;;;;;;;;;;19.78;50.76;95589.56;6123010;19;1497;-73
2022/10/26 01:18:30;;;;;;;;;;;;;;;19.78;50.73;95592.22;6123043;19;1824;-73
2022/10/26 01:20:51;;;;;;;;;;;;;;;19.78;51.17;95591.41;6117282;19;1765;-73
2022/10/26 01:22:58;;;;;;;;;;;;;;;19.78;51.17;95586.09;6113839;19;1936;-74
2022/10/26 01:25:13;;;;;;;;;;;;;;;19.77;50.78;95590.56;6122479;19;1844;-73
2022/10/26 01:27:29;;;;;;;;;;;;;;;19.77;50.98;95598.56;6121888;19;1886;-73
2022/10/26 01:29:47;;;;;;;;;;;;;;;19.77;50.71;95590.56;6121529;19;1636;-74
2022/10/26 01:31:57;;;;;;;;;;;;;;;19.78;50.98;95594.91;6120054;19;1929;-73
2022/10/26 01:34:03;;;;;;;;;;;;;;;19.79;51.03;95601.88;6112345;19;2082;-74
2022/10/26 01:36:12;;;;;;;;;;;;;;;19.78;50.90;95597.56;6121690;19;1831;-74
2022/10/26 01:38:19;;;;;;;;;;;;;;;19.78;50.90;95597.56;6120458;19;1753;-73
2022/10/26 01:40:25;;;;;;;;;;;;;;;19.77;51.26;95593.22;6122992;19;1842;-74
2022/10/26 01:42:30;;;;;;;;;;;;;;;19.79;50.99;95590.38;6123815;19;1760;-73
2022/10/26 01:44:38;;;;;;;;;;;;;;;19.79;50.87;95583.22;6102755;19;1563;-73
2022/10/26 01:46:44;;;;;;;;;;;;;;;19.79;51.33;95585.88;6121347;19;2132;-75
2022/10/26 01:48:52;;;;;;;;;;;;;;;19.80;51.35;95584.03;6121370;19;1783;-74
2022/10/26 01:50:56;;;;;;;;;;;;;;;19.79;51.31;95583.22;6121478;19;1831;-74
2022/10/26 01:53:00;;;;;;;;;;;;;;;19.79;51.49;95585.88;6120937;19;1545;-72
2022/10/26 01:55:04;;;;;;;;;;;;;;;19.79;51.53;95591.19;6112732;19;2067;-72
2022/10/26 01:57:08;;;;;;;;;;;;;;;19.77;51.24;95585.22;6111355;19;1534;-73
2022/10/26 01:59:28;;;;;;;;;;;;;;;19.79;51.16;95585.88;6119540;19;1748;-73
2022/10/26 02:01:41;;;;;;;;;;;;;;;19.79;51.04;95583.22;6122180;19;1765;-74
2022/10/26 02:03:47;;;;;;;;;;;;;;;19.81;51.08;95591.03;6121300;19;1915;-74
2022/10/26 02:06:01;;;;;;;;;;;;;;;19.80;51.38;95594.69;6120092;19;1866;-74
2022/10/26 02:08:24;;;;;;;;;;;;;;;19.80;51.30;95582.19;6105318;19;1833;-74
2022/10/26 02:10:32;;;;;;;;;;;;;;;19.82;51.13;95588.16;6122365;19;1781;-74
2022/10/26 02:12:40;;;;;;;;;;;;;;;19.83;51.51;95584.50;6120932;19;1810;-71
2022/10/26 02:14:48;;;;;;;;;;;;;;;19.87;50.89;95584.91;6120579;19;1842;-71
2022/10/26 02:16:57;;;;;;;;;;;;;;;19.87;51.04;95585.72;6122524;19;1771;-70
2022/10/26 02:19:03;;;;;;;;;;;;;;;19.89;50.98;95594.38;6105296;19;1866;-71
2022/10/26 02:21:12;;;;;;;;;;;;;;;19.87;50.73;95596.41;6121372;19;1847;-74
2022/10/26 02:23:16;;;;;;;;;;;;;;;19.87;51.11;95598.25;6121217;19;1982;-75
2022/10/26 02:25:24;;;;;;;;;;;;;;;19.85;51.07;95600.28;6120288;19;1860;-75
2022/10/26 02:27:30;;;;;;;;;;;;;;;19.83;51.07;95603.16;6119520;19;1752;-74
2022/10/26 02:29:34;;;;;;;;;;;;;;;19.82;50.90;95606.81;6105175;19;1803;-73
2022/10/26 02:31:39;;;;;;;;;;;;;;;19.82;51.17;95601.47;6120517;19;1792;-74
2022/10/26 02:33:45;;;;;;;;;;;;;;;19.81;50.91;95602.50;6120092;19;2000;-74
2022/10/26 02:35:50;;;;;;;;;;;;;;;19.81;51.08;95607.84;6119169;19;1807;-74
2022/10/26 02:37:57;;;;;;;;;;;;;;;19.82;51.08;95608.66;6122263;19;1996;-73
2022/10/26 02:40:02;;;;;;;;;;;;;;;19.81;51.25;95607.03;6121215;19;1775;-74
2022/10/26 02:42:07;;;;;;;;;;;;;;;19.82;51.06;95609.47;6104374;19;1919;-74
2022/10/26 02:44:16;;;;;;;;;;;;;;;19.84;51.02;95610.13;6119472;19;1826;-74
2022/10/26 02:46:20;;;;;;;;;;;;;;;19.83;51.38;95604.97;6117278;19;1773;-73
2022/10/26 02:48:24;;;;;;;;;;;;;;;19.83;51.35;95605.81;6120626;19;1849;-73
2022/10/26 02:50:43;;;;;;;;;;;;;;;19.85;51.39;95602.94;6122075;19;1747;-75
2022/10/26 02:52:50;;;;;;;;;;;;;;;19.84;51.39;95602.13;6110219;19;1798;-71
2022/10/26 02:55:00;;;;;;;;;;;;;;;19.75;51.65;95607.75;6125993;19;1861;-70
2022/10/26 02:57:07;;;;;;;;;;;;;;;19.82;51.14;95611.34;6124598;19;2103;-73
2022/10/26 02:59:11;;;;;;;;;;;;;;;19.86;51.17;95604.59;6127474;19;1817;-76
2022/10/26 03:01:15;;;;;;;;;;;;;;;19.86;51.06;95605.44;6125072;19;2062;-74
2022/10/26 03:03:19;;;;;;;;;;;;;;;19.90;51.09;95613.88;6118975;19;1064;-76
2022/10/26 03:05:24;;;;;;;;;;;;;;;19.91;51.31;95612.84;6117211;19;1808;-73
2022/10/26 03:07:28;;;;;;;;;;;;;;;19.92;50.65;95625.19;6126446;19;1881;-71
2022/10/26 03:09:31;;;;;;;;;;;;;;;19.89;51.04;95615.72;6126999;19;1497;-72
2022/10/26 03:11:37;;;;;;;;;;;;;;;19.64;49.87;95617.94;6125392;19;1608;-70
2022/10/26 03:13:41;;;;;;;;;;;;;;;19.14;48.10;95621.50;6125124;19;1807;-70
2022/10/26 03:15:44;;;;;;;;;;;;;;;18.90;47.69;95622.66;6105704;19;1855;-69
2022/10/26 03:17:47;;;;;;;;;;;;;;;18.74;47.12;95621.00;6126284;19;1752;-69
2022/10/26 03:19:51;;;;;;;;;;;;;;;18.68;46.50;95629.72;6123064;19;1053;-69
2022/10/26 03:21:54;;;;;;;;;;;;;;;18.62;45.60;95623.28;6126762;19;1814;-69
2022/10/26 03:23:57;;;;;;;;;;;;;;;18.49;45.35;95639.88;6127276;19;1886;-68
2022/10/26 03:26:01;;;;;;;;;;;;;;;18.49;45.53;95639.06;6116024;19;1069;-70
2022/10/26 03:28:18;;;;;;;;;;;;;;;18.48;45.37;95638.25;6116644;19;1561;-69
2022/10/26 03:30:22;;;;;;;;;;;;;;;18.47;45.18;95641.91;6126467;19;1788;-70
2022/10/26 03:32:25;;;;;;;;;;;;;;;18.47;44.99;95641.91;6125537;19;1462;-69
2022/10/26 03:34:29;;;;;;;;;;;;;;;18.45;44.99;95633.28;6121884;19;1866;-70
2022/10/26 03:36:32;;;;;;;;;;;;;;;18.45;45.27;95645.78;6123173;19;1061;-69
2022/10/26 03:38:36;;;;;;;;;;;;;;;18.63;45.82;95643.56;6108230;19;1716;-69
2022/10/26 03:40:39;;;;;;;;;;;;;;;18.60;44.94;95645.75;6127226;19;1835;-69
2022/10/26 03:42:42;;;;;;;;;;;;;;;18.49;44.79;95634.56;6124528;19;1568;-68
2022/10/26 03:44:48;;;;;;;;;;;;;;;18.45;44.65;95637.78;6123021;19;1120;-68
2022/10/26 03:46:52;;;;;;;;;;;;;;;18.35;43.87;95638.03;6121181;19;1828;-69
2022/10/26 03:48:55;;;;;;;;;;;;;;;18.33;44.03;95640.06;6116381;19;1697;-69
2022/10/26 03:50:59;;;;;;;;;;;;;;;18.40;44.05;95643.66;6114157;19;2123;-68
2022/10/26 03:53:02;;;;;;;;;;;;;;;18.29;43.95;95638.78;6125730;19;1517;-69
2022/10/26 03:55:07;;;;;;;;;;;;;;;18.26;43.52;95636.47;6122019;19;1869;-68
2022/10/26 03:57:10;;;;;;;;;;;;;;;18.25;43.50;95648.94;6125354;19;1866;-68
2022/10/26 03:59:14;;;;;;;;;;;;;;;18.27;43.33;95651.44;6124208;19;1731;-69
2022/10/26 04:01:20;;;;;;;;;;;;;;;18.24;43.26;95647.31;6105509;19;1840;-69
2022/10/26 04:03:23;;;;;;;;;;;;;;;18.25;43.56;95648.94;6125082;19;1735;-67
2022/10/26 04:05:27;;;;;;;;;;;;;;;18.67;44.26;95646.72;6121487;19;1274;-67
2022/10/26 04:07:30;;;;;;;;;;;;;;;18.63;43.43;95642.72;6124381;19;1742;-67
2022/10/26 04:09:33;;;;;;;;;;;;;;;18.40;43.14;95648.97;6123101;19;1723;-68
2022/10/26 04:11:37;;;;;;;;;;;;;;;18.50;43.37;95649.53;6117382;19;1774;-68
2022/10/26 04:13:40;;;;;;;;;;;;;;;18.30;43.59;95657.22;6113928;19;1770;-69
2022/10/26 04:15:43;;;;;;;;;;;;;;;18.20;43.51;95650.50;6120954;19;1853;-69
2022/10/26 04:17:49;;;;;;;;;;;;;;;18.16;43.05;95654.53;6124062;19;1818;-68
2022/10/26 04:19:53;;;;;;;;;;;;;;;18.13;43.65;95650.41;6121751;19;1753;-68
2022/10/26 04:21:56;;;;;;;;;;;;;;;18.09;43.34;95655.25;6122599;19;1791;-68
2022/10/26 04:23:59;;;;;;;;;;;;;;;18.06;42.86;95652.94;6107701;19;1506;-69
2022/10/26 04:26:03;;;;;;;;;;;;;;;18.02;43.33;95654.31;6120327;19;1116;-69
2022/10/26 04:28:07;;;;;;;;;;;;;;;17.99;43.34;95648.53;6122957;19;1017;-69
2022/10/26 04:30:11;;;;;;;;;;;;;;;18.17;43.77;95657.00;6122241;19;1105;-67
2022/10/26 04:32:14;;;;;;;;;;;;;;;18.07;42.74;95654.63;6122425;19;1053;-67
2022/10/26 04:34:20;;;;;;;;;;;;;;;18.12;43.19;95651.41;6121245;19;1020;-72
2022/10/26 04:36:23;;;;;;;;;;;;;;;18.42;43.47;95652.28;6104577;19;1888;-71
2022/10/26 04:38:27;;;;;;;;;;;;;;;18.70;43.54;95651.69;6119447;19;1037;-70
2022/10/26 04:40:30;;;;;;;;;;;;;;;18.87;44.15;95653.13;6119536;19;1648;-70
2022/10/26 04:42:41;;;;;;;;;;;;;;;18.50;43.36;95662.03;6119649;19;1014;-69
2022/10/26 04:44:44;;;;;;;;;;;;;;;18.16;43.32;95665.19;6118687;19;1148;-70
2022/10/26 04:46:48;;;;;;;;;;;;;;;18.02;43.46;95656.97;6099377;19;1132;-69
2022/10/26 04:48:51;;;;;;;;;;;;;;;17.97;43.08;95661.19;6118289;19;1104;-69
2022/10/26 04:50:59;;;;;;;;;;;;;;;17.93;43.15;95655.41;6118636;19;1500;-69
2022/10/26 04:53:03;;;;;;;;;;;;;;;17.89;43.00;95664.72;6119742;19;1085;-69
2022/10/26 04:55:10;;;;;;;;;;;;;;;17.87;43.34;95670.25;6120991;19;1854;-69
2022/10/26 04:57:13;;;;;;;;;;;;;;;17.83;43.13;95665.44;6111227;19;1053;-70
2022/10/26 04:59:17;;;;;;;;;;;;;;;17.79;42.94;95669.47;6111139;19;1287;-69
2022/10/26 05:01:20;;;;;;;;;;;;;;;17.80;43.20;95671.94;6121461;19;1025;-69
2022/10/26 05:03:23;;;;;;;;;;;;;;;17.79;42.86;95670.31;6120388;19;1282;-69
2022/10/26 05:05:27;;;;;;;;;;;;;;;17.75;43.28;95676.97;6120121;19;1357;-69
2022/10/26 05:07:35;;;;;;;;;;;;;;;17.73;43.33;95678.13;6119387;19;1298;-69
2022/10/26 05:09:39;;;;;;;;;;;;;;;17.75;43.24;95673.47;6101284;19;1057;-69
2022/10/26 05:11:42;;;;;;;;;;;;;;;17.78;43.30;95678.44;6120115;19;1140;-69
2022/10/26 05:13:45;;;;;;;;;;;;;;;17.77;43.07;95685.59;6118203;19;1121;-68
2022/10/26 05:15:49;;;;;;;;;;;;;;;17.72;42.98;95679.13;6119449;19;1853;-68
2022/10/26 05:17:56;;;;;;;;;;;;;;;17.68;42.85;95676.00;6119488;19;1132;-69
2022/10/26 05:20:04;;;;;;;;;;;;;;;17.70;43.38;95686.44;6111409;19;1309;-69
2022/10/26 05:22:08;;;;;;;;;;;;;;;17.69;43.19;95679.47;6110304;19;1091;-69
2022/10/26 05:24:14;;;;;;;;;;;;;;;17.66;43.20;95678.81;6120122;19;1124;-69
2022/10/26 05:26:17;;;;;;;;;;;;;;;17.76;42.95;95680.47;6119421;19;1145;-71
2022/10/26 05:28:20;;;;;;;;;;;;;;;18.20;43.01;95687.75;6120342;19;1038;-69
2022/10/26 05:30:24;;;;;;;;;;;;;;;18.49;43.67;95687.78;6120654;19;1021;-70
2022/10/26 05:32:27;;;;;;;;;;;;;;;18.65;43.79;95696.63;6102752;19;1069;-71
2022/10/26 05:34:31;;;;;;;;;;;;;;;18.74;43.65;95690.22;6120406;19;974;-72
2022/10/26 05:36:34;;;;;;;;;;;;;;;18.82;43.67;95702.63;6118503;19;1854;-69
2022/10/26 05:38:37;;;;;;;;;;;;;;;18.86;43.49;95704.72;6120430;19;1017;-71
2022/10/26 05:40:48;;;;;;;;;;;;;;;18.90;43.67;95700.69;6119930;19;1049;-72
2022/10/26 05:42:51;;;;;;;;;;;;;;;18.96;43.65;95705.28;6109390;19;1217;-71
2022/10/26 05:44:55;;;;;;;;;;;;;;;18.99;44.86;95710.22;6109751;19;1290;-71
2022/10/26 05:46:58;;;;;;;;;;;;;;;19.03;45.36;95715.19;6119048;19;1049;-72
2022/10/26 05:49:01;;;;;;;;;;;;;;;19.07;45.97;95719.16;6118696;19;1132;-70
2022/10/26 05:51:05;;;;;;;;;;;;;;;19.09;46.65;95717.94;6119091;19;1069;-72
2022/10/26 05:53:08;;;;;;;;;;;;;;;19.12;47.96;95716.75;6120050;19;1058;-70
2022/10/26 05:55:12;;;;;;;;;;;;;;;19.18;48.74;95726.69;6101852;19;1862;-70
2022/10/26 05:57:19;;;;;;;;;;;;;;;19.23;49.54;95729.59;6119566;19;1037;-71
2022/10/26 05:59:22;;;;;;;;;;;;;;;19.25;49.24;95735.56;6119158;19;1053;-72
2022/10/26 06:01:33;;;;;;;;;;;;;;;19.26;48.80;95734.53;6119702;19;1371;-71
2022/10/26 06:03:44;;;;;;;;;;;;;;;19.26;49.30;95734.53;6119120;19;1049;-71
2022/10/26 06:05:54;;;;;;;;;;;;;;;19.29;49.27;95731.53;6109281;19;1325;-71
2022/10/26 06:08:00;;;;;;;;;;;;;;;19.32;49.63;95735.63;6114420;19;1110;-71
2022/10/26 06:10:06;;;;;;;;;;;;;;;19.29;49.73;95739.53;6119179;19;1292;-69
2022/10/26 06:12:10;;;;;;;;;;;;;;;19.31;49.70;95740.16;6119394;19;1010;-72
2022/10/26 06:14:16;;;;;;;;;;;;;;;19.34;50.25;95733.63;6119047;19;1029;-71
2022/10/26 06:16:31;;;;;;;;;;;;;;;19.32;49.62;95741.81;6118106;19;1849;-71
2022/10/26 06:18:41;;;;;;;;;;;;;;;19.37;50.27;95741.25;6100718;19;1181;-73
2022/10/26 06:20:51;;;;;;;;;;;;;;;19.40;49.86;95744.34;6119707;19;1112;-71
2022/10/26 06:23:00;;;;;;;;;;;;;;;19.40;49.82;95741.69;6121260;19;1319;-75
2022/10/26 06:25:09;;;;;;;;;;;;;;;19.42;49.56;95741.53;6124624;19;1033;-77
2022/10/26 06:27:18;;;;;;;;;;;;;;;19.41;49.34;95743.38;6126972;19;1070;-76
2022/10/26 06:29:30;;;;;;;;;;;;;;;19.42;49.23;95741.53;6113181;19;1142;-75
2022/10/26 06:31:33;;;;;;;;;;;;;;;19.42;49.14;95747.66;6127200;19;1025;-75
2022/10/26 06:33:37;;;;;;;;;;;;;;;19.42;49.03;95745.00;6124182;19;1539;-77
2022/10/26 06:35:46;;;;;;;;;;;;;;;19.43;49.27;95748.50;6123782;19;1837;-71
2022/10/26 06:37:52;;;;;;;;;;;;;;;19.44;49.28;95743.00;6124625;19;1061;-71
2022/10/26 06:39:58;;;;;;;;;;;;;;;19.46;49.44;95750.78;6114327;19;1177;-72
2022/10/26 06:42:01;;;;;;;;;;;;;;;19.48;49.10;95747.94;6121291;19;1029;-70
2022/10/26 06:44:05;;;;;;;;;;;;;;;19.48;49.15;95755.94;6124694;19;1042;-71
2022/10/26 06:46:15;;;;;;;;;;;;;;;19.48;49.10;95755.94;6124531;19;1042;-71
2022/10/26 06:48:21;;;;;;;;;;;;;;;19.46;49.16;95748.13;6124092;19;954;-72
2022/10/26 06:50:38;;;;;;;;;;;;;;;19.49;49.23;95752.25;6124471;19;1065;-72
2022/10/26 06:52:44;;;;;;;;;;;;;;;19.50;49.14;95752.06;6111679;19;1290;-71
2022/10/26 06:54:50;;;;;;;;;;;;;;;19.48;49.27;95761.28;6124243;19;1048;-72
2022/10/26 06:56:54;;;;;;;;;;;;;;;19.49;49.12;95763.75;6122618;19;1842;-72
2022/10/26 06:59:02;;;;;;;;;;;;;;;19.51;49.06;95758.22;6124105;19;1144;-72
2022/10/26 07:01:06;;;;;;;;;;;;;;;19.50;49.16;95759.25;6124374;19;1507;-72
2022/10/26 07:03:12;;;;;;;;;;;;;;;19.49;49.15;95762.91;6104821;19;1190;-72
2022/10/26 07:05:15;;;;;;;;;;;;;;;19.51;48.82;95760.91;6124246;19;1311;-72
2022/10/26 07:07:22;;;;;;;;;;;;;;;19.51;49.04;95760.91;6123531;19;1081;-72
2022/10/26 07:09:25;;;;;;;;;;;;;;;19.53;49.21;95761.56;6120918;19;1310;-71
2022/10/26 07:11:28;;;;;;;;;;;;;;;19.52;48.90;95762.53;6123762;19;1010;-71
2022/10/26 07:13:32;;;;;;;;;;;;;;;19.52;48.94;95759.88;6115632;19;1076;-71
2022/10/26 07:15:35;;;;;;;;;;;;;;;19.54;49.34;95771.22;6114279;19;1834;-71
2022/10/26 07:17:44;;;;;;;;;;;;;;;19.54;49.32;95768.53;6123723;19;1038;-71
2022/10/26 07:19:50;;;;;;;;;;;;;;;19.54;49.52;95765.88;6123581;19;1064;-70
2022/10/26 07:21:53;;;;;;;;;;;;;;;19.54;49.25;95766.69;6123723;19;1038;-71
2022/10/26 07:23:57;;;;;;;;;;;;;;;19.56;49.19;95769.19;6123931;19;1255;-73
2022/10/26 07:26:01;;;;;;;;;;;;;;;19.56;49.06;95763.88;6108949;19;1257;-75
2022/10/26 07:28:06;;;;;;;;;;;;;;;19.57;49.22;95765.50;6123894;19;1055;-71
2022/10/26 07:30:10;;;;;;;;;;;;;;;19.57;49.00;95766.31;6123271;19;1029;-71
2022/10/26 07:32:14;;;;;;;;;;;;;;;19.58;49.37;95762.66;6122865;19;1053;-71
2022/10/26 07:34:17;;;;;;;;;;;;;;;19.58;49.05;95762.66;6123687;19;957;-70
2022/10/26 07:36:23;;;;;;;;;;;;;;;19.58;49.15;95756.50;6112589;19;1837;-71
2022/10/26 07:38:26;;;;;;;;;;;;;;;19.60;49.56;95760.63;6114081;19;1136;-70
2022/10/26 07:40:30;;;;;;;;;;;;;;;19.61;48.90;95751.63;6122913;19;1119;-70
2022/10/26 07:42:35;;;;;;;;;;;;;;;19.62;49.28;95755.13;6121219;19;1482;-70
2022/10/26 07:44:38;;;;;;;;;;;;;;;19.61;49.38;95753.47;6124703;19;1088;-76
2022/10/26 07:46:42;;;;;;;;;;;;;;;19.63;49.02;95754.09;6124818;19;1020;-78
2022/10/26 07:48:45;;;;;;;;;;;;;;;19.63;49.22;95746.09;6110828;19;996;-76
2022/10/26 07:50:49;;;;;;;;;;;;;;;19.63;48.87;95743.44;6124325;19;1132;-75
2022/10/26 07:52:55;;;;;;;;;;;;;;;19.62;49.17;95749.78;6123259;19;1239;-71
2022/10/26 07:54:58;;;;;;;;;;;;;;;19.62;49.18;95739.13;6122612;19;1290;-72
2022/10/26 07:57:01;;;;;;;;;;;;;;;19.63;48.91;95746.09;6121022;19;1859;-72
2022/10/26 07:59:05;;;;;;;;;;;;;;;19.64;48.88;95755.75;6112662;19;1125;-71
2022/10/26 08:01:09;;;;;;;;;;;;;;;19.64;49.37;95750.44;6111659;19;1424;-70
2022/10/26 08:03:12;;;;;;;;;;;;;;;19.65;49.10;95754.72;6121860;19;1100;-71
2022/10/26 08:05:15;;;;;;;;;;;;;;;19.65;48.91;95754.72;6122383;19;1347;-71
2022/10/26 08:07:19;;;;;;;;;;;;;;;19.64;49.04;95745.09;6121921;19;1143;-72
2022/10/26 08:09:25;;;;;;;;;;;;;;;19.65;49.32;95746.72;6121397;19;965;-71
2022/10/26 08:11:28;;;;;;;;;;;;;;;19.63;49.33;95749.59;6101962;19;1173;-71
2022/10/26 08:13:34;;;;;;;;;;;;;;;19.63;48.95;95743.44;6122371;19;1045;-72
2022/10/26 08:15:37;;;;;;;;;;;;;;;19.64;49.07;95750.44;6121503;19;1524;-72
2022/10/26 08:17:40;;;;;;;;;;;;;;;19.66;49.06;95743.03;6120721;19;1845;-72
2022/10/26 08:19:44;;;;;;;;;;;;;;;19.65;49.25;95738.75;6121720;19;1057;-72
2022/10/26 08:21:47;;;;;;;;;;;;;;;19.66;49.18;95740.38;6112239;19;1282;-71
2022/10/26 08:23:50;;;;;;;;;;;;;;;19.67;49.12;95744.72;6111402;19;1377;-72
2022/10/26 08:25:59;;;;;;;;;;;;;;;19.67;49.28;95742.06;6121901;19;1009;-72
2022/10/26 08:28:02;;;;;;;;;;;;;;;19.52;48.91;95746.53;6122051;19;1040;-67
2022/10/26 08:30:06;;;;;;;;;;;;;;;19.34;48.55;95737.09;6120831;19;970;-67
2022/10/26 08:32:10;;;;;;;;;;;;;;;19.24;47.69;95736.59;6122015;19;970;-68
2022/10/26 08:34:14;;;;;;;;;;;;;;;19.15;47.60;95735.88;6101421;19;1360;-67
2022/10/26 08:36:18;;;;;;;;;;;;;;;19.15;47.10;95738.53;6120934;19;1853;-67
2022/10/26 08:38:22;;;;;;;;;;;;;;;19.11;47.69;95737.22;6120615;19;1148;-67
2022/10/26 08:40:28;;;;;;;;;;;;;;;19.14;47.21;95742.19;6121392;19;954;-68
2022/10/26 08:42:36;;;;;;;;;;;;;;;19.14;46.83;95734.19;6121196;19;1081;-67
2022/10/26 08:44:42;;;;;;;;;;;;;;;19.12;47.45;95735.38;6111056;19;1240;-67
2022/10/26 08:46:48;;;;;;;;;;;;;;;19.03;47.00;95739.16;6110353;19;1196;-68
2022/10/26 08:48:54;;;;;;;;;;;;;;;18.98;47.30;95735.22;6120638;19;1081;-67
2022/10/26 08:51:00;;;;;;;;;;;;;;;19.03;47.00;95733.84;6120941;19;1041;-67
2022/10/26 08:53:05;;;;;;;;;;;;;;;19.19;47.41;95738.97;6120691;19;1132;-70
2022/10/26 08:55:14;;;;;;;;;;;;;;;19.31;47.18;95739.31;6121509;19;1021;-71
2022/10/26 08:57:21;;;;;;;;;;;;;;;19.37;46.86;95743.91;6100639;19;1857;-71
2022/10/26 08:59:32;;;;;;;;;;;;;;;19.41;47.27;95746.03;6121297;19;974;-70
2022/10/26 09:01:36;;;;;;;;;;;;;;;19.44;47.14;95745.66;6120658;19;750;-71
2022/10/26 09:03:39;;;;;;;;;;;;;;;19.45;47.21;95741.16;6120742;19;1030;-70
2022/10/26 09:05:47;;;;;;;;;;;;;;;19.47;47.41;95743.63;6120369;19;1333;-71
2022/10/26 09:07:56;;;;;;;;;;;;;;;19.48;47.56;95743.44;6100581;19;1193;-70
2022/10/26 09:10:03;;;;;;;;;;;;;;;19.50;47.41;95748.59;6120242;19;1036;-70
2022/10/26 09:12:12;;;;;;;;;;;;;;;19.52;47.57;95750.06;6121106;19;994;-71
2022/10/26 09:14:18;;;;;;;;;;;;;;;19.51;47.29;95732.41;6121034;19;1021;-71
2022/10/26 09:16:28;;;;;;;;;;;;;;;19.54;47.56;95747.22;6120099;19;1857;-71
2022/10/26 09:18:37;;;;;;;;;;;;;;;19.54;47.64;95741.88;6111483;19;1073;-71
2022/10/26 09:20:46;;;;;;;;;;;;;;;19.55;47.50;95739.06;6110257;19;1163;-70
2022/10/26 09:22:53;;;;;;;;;;;;;;;19.56;47.67;95731.88;6119782;19;1143;-70
2022/10/26 09:24:57;;;;;;;;;;;;;;;19.57;47.46;95738.84;6120279;19;1041;-71
2022/10/26 09:27:04;;;;;;;;;;;;;;;19.57;47.68;95733.50;6120734;19;1031;-71
2022/10/26 09:29:09;;;;;;;;;;;;;;;19.57;47.77;95726.34;6120520;19;1029;-71
2022/10/26 09:31:15;;;;;;;;;;;;;;;19.58;47.73;95728.00;6100780;19;1180;-71
2022/10/26 09:33:23;;;;;;;;;;;;;;;19.57;47.44;95734.34;6120142;19;1057;-71
2022/10/26 09:35:28;;;;;;;;;;;;;;;19.57;47.59;95729.00;6119879;19;1142;-71
2022/10/26 09:37:33;;;;;;;;;;;;;;;19.60;47.78;95735.81;6118856;19;1854;-71
2022/10/26 09:39:40;;;;;;;;;;;;;;;19.61;47.72;95740.16;6120150;19;1140;-71
2022/10/26 09:41:46;;;;;;;;;;;;;;;19.61;48.00;95729.47;6103119;19;1145;-71
2022/10/26 09:43:53;;;;;;;;;;;;;;;19.62;47.84;95729.28;6120126;19;1296;-71
2022/10/26 09:45:56;;;;;;;;;;;;;;;19.63;48.13;95728.28;6119620;19;1021;-71
2022/10/26 09:48:03;;;;;;;;;;;;;;;19.63;48.05;95730.94;6119728;19;1029;-72
2022/10/26 09:50:19;;;;;;;;;;;;;;;19.64;47.85;95718.44;6120011;19;959;-71
2022/10/26 09:52:22;;;;;;;;;;;;;;;19.64;47.79;95723.78;6114299;19;1058;-71
2022/10/26 09:54:25;;;;;;;;;;;;;;;19.65;47.82;95731.56;6108046;19;1167;-71
2022/10/26 09:56:30;;;;;;;;;;;;;;;19.64;47.79;95721.91;6119778;19;1009;-71
2022/10/26 09:58:36;;;;;;;;;;;;;;;19.66;47.98;95719.91;6119540;19;969;-72
2022/10/26 10:00:40;;;;;;;;;;;;;;;19.68;48.29;95719.69;6117553;19;1351;-70
2022/10/26 10:02:45;;;;;;;;;;;;;;;19.69;48.41;95720.53;6118994;19;1022;-70
2022/10/26 10:04:49;;;;;;;;;;;;;;;19.68;48.30;95719.69;6100563;19;1426;-71
2022/10/26 10:07:13;;;;;;;;;;;;;;;19.69;47.98;95716.03;6117228;19;1346;-72
2022/10/26 10:09:18;;;;;;;;;;;;;;;19.69;48.14;95716.03;6119981;19;1033;-71
2022/10/26 10:11:21;;;;;;;;;;;;;;;19.70;48.39;95706.19;6119480;19;1009;-72
2022/10/26 10:13:25;;;;;;;;;;;;;;;19.71;48.31;95702.50;6119574;19;1002;-71
2022/10/26 10:15:29;;;;;;;;;;;;;;;19.71;48.02;95708.66;6110276;19;1169;-70
2022/10/26 10:17:32;;;;;;;;;;;;;;;19.70;48.22;95701.69;6110302;19;1830;-67
2022/10/26 10:19:37;;;;;;;;;;;;;;;19.71;48.34;95703.31;6119461;19;1080;-75
2022/10/26 10:21:42;;;;;;;;;;;;;;;19.71;47.94;95697.97;6120119;19;962;-75
2022/10/26 10:23:54;;;;;;;;;;;;;;;19.71;48.38;95692.66;6120338;19;1014;-75
2022/10/26 10:26:01;;;;;;;;;;;;;;;19.73;48.15;95695.16;6119970;19;1038;-75
2022/10/26 10:28:05;;;;;;;;;;;;;;;19.73;48.17;95695.97;6105523;19;1127;-74
2022/10/26 10:30:22;;;;;;;;;;;;;;;19.74;48.07;95697.59;6119938;19;979;-74
2022/10/26 10:32:26;;;;;;;;;;;;;;;19.73;47.99;95689.81;6119901;19;1053;-75
2022/10/26 10:34:32;;;;;;;;;;;;;;;19.73;48.36;95679.97;6119824;19;1061;-74
2022/10/26 10:36:35;;;;;;;;;;;;;;;19.74;48.40;95683.44;6119743;19;946;-74
2022/10/26 10:38:40;;;;;;;;;;;;;;;19.74;48.53;95681.59;6102886;19;1809;-74
2022/10/26 10:40:51;;;;;;;;;;;;;;;19.75;48.28;95685.09;6118648;19;1022;-72
2022/10/26 10:42:56;;;;;;;;;;;;;;;19.75;48.54;95685.09;6117856;19;1409;-71
2022/10/26 10:45:00;;;;;;;;;;;;;;;19.75;48.59;95682.44;6119241;19;943;-71
2022/10/26 10:47:04;;;;;;;;;;;;;;;19.75;48.24;95677.94;6118570;19;1113;-71
2022/10/26 10:49:09;;;;;;;;;;;;;;;19.75;48.56;95677.94;6114083;19;958;-70
2022/10/26 10:51:12;;;;;;;;;;;;;;;19.76;48.57;95671.59;6106498;19;1274;-70
2022/10/26 10:53:18;;;;;;;;;;;;;;;19.75;48.58;95661.94;6117853;19;1132;-71
2022/10/26 10:55:22;;;;;;;;;;;;;;;19.77;48.40;95665.22;6116365;19;1416;-70
2022/10/26 10:57:33;;;;;;;;;;;;;;;19.78;48.69;95663.41;6117346;19;1853;-71
2022/10/26 10:59:54;;;;;;;;;;;;;;;19.79;48.50;95662.38;6116275;19;1472;-71
2022/10/26 11:02:05;;;;;;;;;;;;;;;19.78;47.37;95660.75;6096871;19;1120;-70
2022/10/26 11:04:24;;;;;;;;;;;;;;;19.77;47.33;95659.88;6118307;19;973;-68